Time;durP1;ratioP1;P1;durP2;ratioP2;P2;SDS_P1;SDS_P2;PMS_P1;PMS_P2;Temp;Humidity;BMP_temperature;BMP_pressure;BME280_temperature;BME280_humidity;BME280_pressure;Samples;Min_cycle;Max_cycle;Signal;HPM_P1;HPM_P2
2024/03/06 00:00:27;;;;;;;11.13;7.15;;;7.20;99.90;;;;;;5053344;28;20079;-46
2024/03/06 00:02:52;;;;;;;9.88;7.95;;;7.10;99.90;;;;;;5053277;28;20033;-45
2024/03/06 00:05:18;;;;;;;11.30;8.85;;;7.00;99.90;;;;;;5053515;28;20048;-49
2024/03/06 00:07:43;;;;;;;9.95;7.97;;;6.80;99.90;;;;;;5053280;28;20017;-45
2024/03/06 00:10:09;;;;;;;10.65;7.78;;;6.70;99.90;;;;;;5053387;28;20025;-43
2024/03/06 00:12:35;;;;;;;10.10;8.00;;;6.70;99.90;;;;;;5053352;28;20500;-43
2024/03/06 00:15:02;;;;;;;10.82;8.52;;;6.70;99.90;;;;;;5051695;28;20127;-42
2024/03/06 00:17:27;;;;;;;12.25;7.50;;;6.60;99.90;;;;;;5058293;28;20082;-43
2024/03/06 00:19:53;;;;;;;11.07;7.25;;;6.50;99.90;;;;;;5073069;28;20054;-46
2024/03/06 00:22:18;;;;;;;12.45;7.90;;;6.50;99.90;;;;;;5072879;28;20107;-45
2024/03/06 00:24:44;;;;;;;13.98;8.45;;;6.40;99.90;;;;;;5060384;28;20051;-44
2024/03/06 00:27:10;;;;;;;12.18;8.85;;;6.40;99.90;;;;;;5038293;28;20083;-49
2024/03/06 00:29:37;;;;;;;15.90;8.48;;;6.40;99.90;;;;;;5040696;28;20032;-47
2024/03/06 00:32:03;;;;;;;13.70;6.93;;;6.40;99.90;;;;;;5044240;28;20028;-44
2024/03/06 00:34:29;;;;;;;13.40;7.63;;;6.40;99.90;;;;;;5044859;28;20041;-46
2024/03/06 00:36:54;;;;;;;11.07;7.95;;;6.30;99.90;;;;;;5043395;28;20100;-44
2024/03/06 00:39:20;;;;;;;12.23;6.80;;;6.30;99.90;;;;;;5041997;28;20094;-42
2024/03/06 00:41:45;;;;;;;10.88;8.00;;;6.30;99.90;;;;;;5041762;28;20028;-43
2024/03/06 00:44:11;;;;;;;16.20;10.48;;;6.30;99.90;;;;;;5033261;28;20384;-51
2024/03/06 00:46:36;;;;;;;37.80;24.17;;;6.40;99.90;;;;;;5031327;28;20025;-47
2024/03/06 00:49:02;;;;;;;19.88;12.43;;;6.40;99.90;;;;;;5032551;28;20045;-45
2024/03/06 00:51:28;;;;;;;14.98;10.15;;;6.40;99.90;;;;;;5032671;28;20099;-48
2024/03/06 00:53:53;;;;;;;10.95;8.10;;;6.40;99.90;;;;;;5032405;28;20029;-44
2024/03/06 00:56:19;;;;;;;10.30;8.52;;;6.40;99.90;;;;;;5032506;28;20042;-50
2024/03/06 00:58:44;;;;;;;8.45;7.13;;;6.40;99.90;;;;;;5031127;28;20029;-48
2024/03/06 01:01:10;;;;;;;11.45;7.82;;;6.40;99.90;;;;;;5032326;28;20109;-45
2024/03/06 01:03:37;;;;;;;10.65;7.32;;;6.40;99.90;;;;;;5032158;28;20036;-47
2024/03/06 01:06:03;;;;;;;9.73;7.88;;;6.40;99.90;;;;;;5032030;28;20029;-43
2024/03/06 01:08:30;;;;;;;9.85;8.00;;;6.40;99.90;;;;;;5031966;28;20068;-45
2024/03/06 01:10:55;;;;;;;17.83;9.35;;;6.40;99.90;;;;;;5032524;28;20133;-45
2024/03/06 01:13:21;;;;;;;11.75;8.60;;;6.40;99.90;;;;;;5032494;28;20067;-47
2024/03/06 01:15:47;;;;;;;12.05;9.50;;;6.40;99.90;;;;;;5031047;28;20025;-44
2024/03/06 01:18:12;;;;;;;14.73;10.02;;;6.40;99.90;;;;;;5031962;28;20025;-46
2024/03/06 01:20:38;;;;;;;19.63;11.10;;;6.40;99.90;;;;;;5032488;28;20112;-47
2024/03/06 01:23:04;;;;;;;16.83;10.13;;;6.50;99.90;;;;;;5033767;28;20045;-45
2024/03/06 01:25:29;;;;;;;13.48;10.52;;;6.50;99.90;;;;;;5033445;28;20021;-45
2024/03/06 01:27:55;;;;;;;13.90;10.68;;;6.50;99.90;;;;;;5032637;28;20104;-46
2024/03/06 01:30:21;;;;;;;13.70;9.23;;;6.50;99.90;;;;;;5032987;28;20159;-49
2024/03/06 01:32:46;;;;;;;11.80;8.30;;;6.60;99.90;;;;;;5032465;28;20026;-44
2024/03/06 01:35:12;;;;;;;11.32;9.05;;;6.50;99.90;;;;;;5030590;28;20476;-44
2024/03/06 01:37:37;;;;;;;12.35;9.13;;;6.50;99.90;;;;;;5032100;28;20031;-47
2024/03/06 01:40:04;;;;;;;14.00;8.68;;;6.40;99.90;;;;;;5032011;28;20025;-49
2024/03/06 01:42:30;;;;;;;10.90;8.50;;;6.40;99.90;;;;;;5031747;28;20030;-45
2024/03/06 01:44:56;;;;;;;10.55;8.30;;;6.40;99.90;;;;;;5031923;28;20026;-45
2024/03/06 01:47:21;;;;;;;12.48;9.85;;;6.30;99.90;;;;;;5031864;28;20026;-48
2024/03/06 01:49:47;;;;;;;18.60;9.35;;;6.40;99.90;;;;;;5031736;28;20029;-46
2024/03/06 01:52:15;;;;;;;17.35;9.85;;;6.40;99.90;;;;;;5030936;28;20076;-44
2024/03/06 01:54:41;;;;;;;14.63;10.35;;;6.40;99.90;;;;;;5047584;28;20025;-44
2024/03/06 01:57:08;;;;;;;11.18;8.27;;;6.30;99.90;;;;;;5032281;28;20489;-44
2024/03/06 01:59:33;;;;;;;17.10;8.27;;;6.30;99.90;;;;;;5032050;28;20037;-47
2024/03/06 02:02:03;;;;;;;11.82;7.78;;;6.20;99.90;;;;;;5030651;28;20088;-45
2024/03/06 02:04:29;;;;;;;12.18;8.85;;;6.20;99.90;;;;;;5031821;28;20028;-47
2024/03/06 02:06:55;;;;;;;12.25;8.27;;;6.20;99.90;;;;;;5031514;28;20026;-43
2024/03/06 02:09:20;;;;;;;12.88;8.68;;;6.40;99.90;;;;;;5031856;28;20025;-44
2024/03/06 02:11:46;;;;;;;13.68;9.02;;;6.30;99.90;;;;;;5031465;28;20179;-49
2024/03/06 02:14:12;;;;;;;12.73;9.00;;;6.20;99.90;;;;;;5031611;28;20075;-42
2024/03/06 02:16:39;;;;;;;13.32;9.40;;;6.10;99.90;;;;;;5031367;28;20025;-43
2024/03/06 02:19:05;;;;;;;10.35;8.15;;;6.10;99.90;;;;;;5032789;28;20028;-44
2024/03/06 02:21:31;;;;;;;12.13;9.02;;;6.00;99.90;;;;;;5035582;28;20159;-47
2024/03/06 02:23:57;;;;;;;15.27;8.68;;;6.00;99.90;;;;;;5035438;28;20025;-45
2024/03/06 02:26:22;;;;;;;10.90;8.57;;;6.00;99.90;;;;;;5034189;28;20025;-44
2024/03/06 02:28:52;;;;;;;13.35;9.30;;;6.00;99.90;;;;;;5034358;28;20071;-45
2024/03/06 02:31:19;;;;;;;12.85;9.20;;;6.00;99.90;;;;;;5035633;28;20519;-44
2024/03/06 02:33:47;;;;;;;14.07;8.48;;;5.90;99.90;;;;;;5035311;28;20061;-44
2024/03/06 02:36:13;;;;;;;13.77;8.43;;;5.90;99.90;;;;;;5035389;28;20087;-43
2024/03/06 02:38:38;;;;;;;16.83;8.27;;;5.90;99.90;;;;;;5035160;28;20440;-47
2024/03/06 02:41:06;;;;;;;12.10;8.55;;;5.70;99.90;;;;;;5035183;28;20032;-44
2024/03/06 02:43:32;;;;;;;13.18;8.98;;;5.70;99.90;;;;;;5034909;28;20041;-49
2024/03/06 02:45:57;;;;;;;10.18;8.07;;;5.70;99.90;;;;;;5034805;28;20125;-46
2024/03/06 02:48:23;;;;;;;13.23;9.30;;;5.70;99.90;;;;;;5034710;28;20021;-47
2024/03/06 02:50:48;;;;;;;11.52;8.75;;;5.70;99.90;;;;;;5034712;28;20025;-47
2024/03/06 02:53:14;;;;;;;9.88;7.68;;;5.60;99.90;;;;;;5034644;28;20159;-51
2024/03/06 02:55:39;;;;;;;15.93;10.15;;;5.70;99.90;;;;;;5034675;28;20030;-45
2024/03/06 02:58:05;;;;;;;9.73;8.10;;;5.60;99.90;;;;;;5034655;28;20317;-46
2024/03/06 03:00:31;;;;;;;14.38;8.38;;;5.60;99.90;;;;;;5034642;28;20026;-46
2024/03/06 03:02:57;;;;;;;13.93;8.95;;;5.60;99.90;;;;;;5034410;28;20507;-45
2024/03/06 03:05:23;;;;;;;14.52;9.55;;;5.60;99.90;;;;;;5034425;28;20027;-45
2024/03/06 03:07:49;;;;;;;12.02;9.02;;;5.60;99.90;;;;;;5034598;28;20025;-44
2024/03/06 03:10:15;;;;;;;13.95;9.57;;;5.60;99.90;;;;;;5034487;28;20481;-45
2024/03/06 03:12:41;;;;;;;14.45;9.30;;;5.50;99.90;;;;;;5034307;28;20034;-44
2024/03/06 03:15:07;;;;;;;15.05;9.63;;;5.60;99.90;;;;;;5034737;28;20018;-46
2024/03/06 03:17:33;;;;;;;16.17;9.75;;;5.50;99.90;;;;;;5033895;28;20567;-44
2024/03/06 03:19:59;;;;;;;18.15;10.02;;;5.50;99.90;;;;;;5034302;28;20029;-44
2024/03/06 03:22:25;;;;;;;11.65;9.15;;;5.40;99.90;;;;;;5033827;28;20108;-47
2024/03/06 03:24:50;;;;;;;13.80;9.45;;;5.50;99.90;;;;;;5032732;28;20033;-49
2024/03/06 03:27:16;;;;;;;13.45;10.02;;;5.50;99.90;;;;;;5034146;28;20021;-44
2024/03/06 03:29:42;;;;;;;16.15;10.27;;;5.50;99.90;;;;;;5033613;28;20018;-43
2024/03/06 03:32:07;;;;;;;16.65;10.55;;;5.50;99.90;;;;;;5034042;28;20048;-44
2024/03/06 03:34:35;;;;;;;16.38;10.48;;;5.50;99.90;;;;;;5033985;28;20025;-43
2024/03/06 03:37:00;;;;;;;13.13;9.27;;;5.40;99.90;;;;;;5033901;28;20163;-43
2024/03/06 03:39:27;;;;;;;11.65;8.07;;;5.30;99.90;;;;;;5033773;28;20112;-44
2024/03/06 03:41:53;;;;;;;10.23;8.38;;;5.30;99.90;;;;;;5033992;28;20021;-44
2024/03/06 03:44:19;;;;;;;11.13;8.43;;;5.30;99.90;;;;;;5032321;28;20022;-44
2024/03/06 03:46:45;;;;;;;15.15;8.45;;;5.30;99.90;;;;;;5033661;28;20478;-46
2024/03/06 03:49:11;;;;;;;13.05;8.57;;;5.30;99.90;;;;;;5032282;28;20566;-50
2024/03/06 03:51:38;;;;;;;14.70;9.00;;;5.30;99.90;;;;;;5033666;28;20408;-46
2024/03/06 03:54:04;;;;;;;9.35;7.93;;;5.30;99.90;;;;;;5032193;28;20072;-48
2024/03/06 03:56:30;;;;;;;15.25;8.48;;;5.30;99.90;;;;;;5033474;28;20037;-47
2024/03/06 03:58:57;;;;;;;11.55;8.10;;;5.30;99.90;;;;;;5033450;28;20569;-43
2024/03/06 04:01:23;;;;;;;11.95;9.25;;;5.30;99.90;;;;;;5032100;28;20029;-45
2024/03/06 04:03:48;;;;;;;10.98;7.60;;;5.30;99.90;;;;;;5033371;28;20025;-49
2024/03/06 04:06:14;;;;;;;11.50;8.77;;;5.30;99.90;;;;;;5033305;28;20389;-47
2024/03/06 04:08:41;;;;;;;11.23;7.88;;;5.30;99.90;;;;;;5033150;28;20025;-45
2024/03/06 04:11:07;;;;;;;12.82;8.27;;;5.20;99.90;;;;;;5033347;28;20028;-51
2024/03/06 04:13:36;;;;;;;13.73;7.95;;;5.30;99.90;;;;;;5031737;28;20026;-45
2024/03/06 04:16:02;;;;;;;10.93;8.63;;;5.30;99.90;;;;;;5033131;28;20103;-48
2024/03/06 04:18:28;;;;;;;13.40;8.18;;;5.30;99.90;;;;;;5032852;28;20049;-48
2024/03/06 04:20:54;;;;;;;8.88;7.80;;;5.20;99.90;;;;;;5033086;28;20028;-47
2024/03/06 04:23:19;;;;;;;11.55;8.13;;;5.30;99.90;;;;;;5032899;28;20389;-44
2024/03/06 04:25:45;;;;;;;9.05;7.80;;;5.20;99.90;;;;;;5032965;28;20068;-47
2024/03/06 04:28:10;;;;;;;12.27;7.90;;;5.20;99.90;;;;;;5032762;28;20326;-44
2024/03/06 04:30:36;;;;;;;13.18;7.88;;;5.20;99.90;;;;;;5033072;28;20069;-48
2024/03/06 04:33:01;;;;;;;19.38;9.10;;;5.10;99.90;;;;;;5032734;28;20025;-44
2024/03/06 04:35:27;;;;;;;12.68;8.55;;;5.10;99.90;;;;;;5031544;28;20033;-48
2024/03/06 04:37:52;;;;;;;12.50;9.18;;;5.10;99.90;;;;;;5033390;28;20362;-44
2024/03/06 04:40:20;;;;;;;11.63;9.05;;;5.10;99.90;;;;;;5031697;28;20577;-47
2024/03/06 04:42:49;;;;;;;13.27;9.18;;;5.10;99.90;;;;;;5031622;28;20127;-46
2024/03/06 04:45:16;;;;;;;13.32;10.00;;;5.10;99.90;;;;;;5032746;28;20022;-42
2024/03/06 04:47:42;;;;;;;12.05;8.93;;;5.10;99.90;;;;;;5032745;28;20029;-45
2024/03/06 04:50:14;;;;;;;10.68;8.30;;;5.00;99.90;;;;;;5033256;28;20428;-47
2024/03/06 04:52:40;;;;;;;15.10;9.50;;;5.00;99.90;;;;;;5032376;28;20071;-45
2024/03/06 04:55:07;;;;;;;11.73;8.82;;;5.00;99.90;;;;;;5032876;28;20481;-45
2024/03/06 04:57:32;;;;;;;13.95;8.73;;;5.00;99.90;;;;;;5030925;28;20083;-42
2024/03/06 04:59:58;;;;;;;14.25;9.38;;;5.00;99.90;;;;;;5032436;28;20021;-47
2024/03/06 05:02:25;;;;;;;12.25;9.25;;;5.00;99.90;;;;;;5032116;28;20509;-46
2024/03/06 05:04:51;;;;;;;12.05;8.35;;;5.00;99.90;;;;;;5032239;28;20100;-46
2024/03/06 05:07:16;;;;;;;12.10;7.78;;;5.00;99.90;;;;;;5032168;28;20112;-47
2024/03/06 05:09:42;;;;;;;11.95;8.40;;;5.00;99.90;;;;;;5032283;28;20076;-46
2024/03/06 05:12:08;;;;;;;14.57;7.95;;;5.00;99.90;;;;;;5032340;28;20032;-45
2024/03/06 05:14:33;;;;;;;13.60;9.40;;;5.00;99.90;;;;;;5031993;28;20026;-46
2024/03/06 05:16:59;;;;;;;16.02;8.32;;;5.00;99.90;;;;;;5031995;28;20095;-46
2024/03/06 05:19:31;;;;;;;15.32;9.73;;;5.00;99.90;;;;;;5031601;28;20404;-45
2024/03/06 05:22:00;;;;;;;12.60;8.50;;;5.00;99.90;;;;;;5031976;28;20116;-48
2024/03/06 05:24:25;;;;;;;9.45;7.13;;;5.00;99.90;;;;;;5031676;28;20029;-44
2024/03/06 05:26:51;;;;;;;11.70;8.77;;;5.00;99.90;;;;;;5030944;28;20404;-45
2024/03/06 05:29:16;;;;;;;11.50;7.80;;;5.00;99.90;;;;;;5032108;28;20033;-50
2024/03/06 05:31:42;;;;;;;10.68;8.10;;;5.00;99.90;;;;;;5032396;28;20087;-46
2024/03/06 05:34:08;;;;;;;14.85;8.55;;;5.00;99.90;;;;;;5031493;28;20109;-46
2024/03/06 05:36:33;;;;;;;9.60;8.60;;;5.00;99.90;;;;;;5031651;28;20481;-44
2024/03/06 05:38:59;;;;;;;11.05;8.20;;;4.90;99.90;;;;;;5031502;28;20029;-45
2024/03/06 05:41:24;;;;;;;11.65;7.93;;;5.00;99.90;;;;;;5031942;28;20033;-46
2024/03/06 05:43:49;;;;;;;14.88;9.48;;;5.00;99.90;;;;;;5047121;28;20021;-46
2024/03/06 05:46:15;;;;;;;13.02;7.75;;;5.00;99.90;;;;;;5031563;28;20040;-46
2024/03/06 05:48:41;;;;;;;14.02;8.63;;;5.00;99.90;;;;;;5031258;28;20537;-47
2024/03/06 05:51:07;;;;;;;12.25;8.88;;;5.00;99.90;;;;;;5031728;28;20025;-46
2024/03/06 05:53:37;;;;;;;12.75;8.10;;;5.00;99.90;;;;;;5031284;28;20013;-49
2024/03/06 05:56:06;;;;;;;12.70;8.55;;;5.00;99.90;;;;;;5029998;28;20516;-44
2024/03/06 05:58:32;;;;;;;11.68;8.75;;;5.00;99.90;;;;;;5031352;28;20505;-44
2024/03/06 06:00:58;;;;;;;10.80;8.10;;;5.00;99.90;;;;;;5031366;28;20091;-44
2024/03/06 06:03:23;;;;;;;9.32;8.18;;;5.00;99.90;;;;;;5031231;28;20025;-45
2024/03/06 06:05:49;;;;;;;13.30;9.18;;;5.00;99.90;;;;;;5031294;28;20075;-46
2024/03/06 06:08:14;;;;;;;10.15;8.20;;;4.90;99.90;;;;;;5031471;28;20441;-42
2024/03/06 06:10:40;;;;;;;13.55;7.88;;;4.90;99.90;;;;;;5031660;28;20112;-45
2024/03/06 06:13:05;;;;;;;12.55;7.90;;;5.00;99.90;;;;;;5030205;28;20052;-44
2024/03/06 06:15:31;;;;;;;11.88;8.45;;;4.90;99.90;;;;;;5031387;28;20480;-48
2024/03/06 06:17:57;;;;;;;11.70;8.30;;;4.90;99.90;;;;;;5031101;28;20080;-46
2024/03/06 06:20:22;;;;;;;12.98;8.65;;;4.90;99.90;;;;;;5031944;28;20493;-45
2024/03/06 06:22:48;;;;;;;15.05;8.93;;;5.00;99.90;;;;;;5030900;28;20080;-49
2024/03/06 06:25:15;;;;;;;15.25;9.23;;;5.00;99.90;;;;;;5031947;28;20428;-51
2024/03/06 06:27:40;;;;;;;17.85;9.52;;;5.10;99.90;;;;;;5031089;28;20396;-47
2024/03/06 06:30:11;;;;;;;15.93;8.75;;;5.20;99.90;;;;;;5031102;28;20029;-48
2024/03/06 06:32:40;;;;;;;14.57;9.65;;;5.20;99.90;;;;;;5031411;28;20530;-45
2024/03/06 06:35:06;;;;;;;18.85;8.05;;;5.20;99.90;;;;;;5031238;28;20044;-44
2024/03/06 06:37:32;;;;;;;13.50;8.82;;;5.30;99.90;;;;;;5031024;28;20068;-47
2024/03/06 06:39:59;;;;;;;14.02;8.30;;;5.30;99.90;;;;;;5031772;28;20057;-49
2024/03/06 06:42:24;;;;;;;14.05;8.40;;;5.30;99.90;;;;;;5031836;28;20036;-44
2024/03/06 06:44:50;;;;;;;13.40;8.68;;;5.40;99.90;;;;;;5031309;28;20018;-48
2024/03/06 06:47:16;;;;;;;12.05;9.40;;;5.40;99.90;;;;;;5029745;28;20453;-44
2024/03/06 06:49:41;;;;;;;15.80;8.88;;;5.40;99.90;;;;;;5031088;28;20156;-45
2024/03/06 06:52:07;;;;;;;10.52;7.82;;;5.50;99.90;;;;;;5029771;28;20548;-44
2024/03/06 06:54:33;;;;;;;12.45;8.27;;;5.50;99.90;;;;;;5031739;28;20022;-49
2024/03/06 06:56:58;;;;;;;14.05;8.85;;;5.50;99.90;;;;;;5030797;28;20042;-47
2024/03/06 06:59:24;;;;;;;13.82;8.23;;;5.60;99.90;;;;;;5030784;28;20168;-44
2024/03/06 07:01:49;;;;;;;16.50;9.18;;;5.60;99.90;;;;;;5030898;28;20611;-50
2024/03/06 07:04:19;;;;;;;14.02;8.93;;;5.90;99.90;;;;;;5031029;28;20029;-46
2024/03/06 07:06:46;;;;;;;12.68;9.68;;;6.10;99.90;;;;;;5034371;28;20024;-47
2024/03/06 07:09:12;;;;;;;13.25;9.38;;;6.00;99.90;;;;;;5034329;28;20026;-44
2024/03/06 07:11:37;;;;;;;13.98;8.80;;;5.80;99.90;;;;;;5034314;28;20370;-45
2024/03/06 07:14:03;;;;;;;15.30;9.13;;;5.80;99.90;;;;;;5034379;28;20068;-44
2024/03/06 07:16:28;;;;;;;13.07;8.60;;;5.80;99.90;;;;;;5034513;28;20033;-45
2024/03/06 07:18:54;;;;;;;10.93;8.75;;;5.80;99.90;;;;;;5033928;28;20037;-46
2024/03/06 07:21:19;;;;;;;13.05;8.70;;;5.90;99.90;;;;;;5034114;28;20504;-50
2024/03/06 07:23:45;;;;;;;11.00;8.38;;;6.00;99.90;;;;;;5033893;28;20128;-48
2024/03/06 07:26:10;;;;;;;12.43;8.60;;;6.00;99.90;;;;;;5034219;28;20538;-44
2024/03/06 07:28:37;;;;;;;10.73;8.20;;;6.10;99.90;;;;;;5034259;28;20029;-44
2024/03/06 07:31:03;;;;;;;8.80;7.90;;;6.10;99.90;;;;;;5034277;28;20028;-45
2024/03/06 07:33:28;;;;;;;9.15;7.57;;;6.20;99.90;;;;;;5033813;28;20029;-43
2024/03/06 07:35:54;;;;;;;9.80;8.30;;;6.30;99.90;;;;;;5033940;28;20057;-47
2024/03/06 07:38:20;;;;;;;19.85;9.73;;;6.40;99.90;;;;;;5033828;28;20071;-51
2024/03/06 07:40:46;;;;;;;13.73;8.80;;;6.50;99.90;;;;;;5034048;28;20025;-47
2024/03/06 07:43:11;;;;;;;15.52;9.63;;;6.50;99.90;;;;;;5033901;28;20104;-42
2024/03/06 07:45:37;;;;;;;11.27;8.25;;;6.60;99.90;;;;;;5033868;28;20045;-48
2024/03/06 07:48:03;;;;;;;11.13;8.10;;;6.70;99.90;;;;;;5032302;28;20025;-44
2024/03/06 07:50:29;;;;;;;13.32;7.45;;;6.70;99.90;;;;;;5034682;28;20076;-46
2024/03/06 07:52:55;;;;;;;10.75;7.43;;;6.80;99.90;;;;;;5034582;28;20029;-47
2024/03/06 07:55:21;;;;;;;14.88;8.40;;;6.90;99.90;;;;;;5034365;28;20040;-48
2024/03/06 07:57:47;;;;;;;13.73;8.38;;;7.00;99.90;;;;;;5034233;28;20549;-46
2024/03/06 08:00:19;;;;;;;9.02;7.68;;;7.10;99.90;;;;;;5032957;28;20116;-47
2024/03/06 08:02:49;;;;;;;14.38;7.50;;;7.20;99.90;;;;;;5033585;28;20021;-46
2024/03/06 08:05:15;;;;;;;11.57;7.47;;;7.40;99.90;;;;;;5034180;28;20393;-46
2024/03/06 08:07:41;;;;;;;10.30;7.07;;;7.50;99.90;;;;;;5034587;28;20026;-47
2024/03/06 08:10:09;;;;;;;7.25;6.50;;;7.60;99.90;;;;;;5033754;28;20041;-47
2024/03/06 08:12:35;;;;;;;8.70;6.80;;;7.70;99.90;;;;;;5033329;28;20017;-46
2024/03/06 08:15:02;;;;;;;10.30;7.13;;;7.80;99.90;;;;;;5033186;28;20612;-47
2024/03/06 08:17:27;;;;;;;10.55;6.53;;;7.90;99.90;;;;;;5031812;28;20029;-47
2024/03/06 08:19:53;;;;;;;11.20;7.72;;;8.00;99.90;;;;;;5033136;28;20504;-48
2024/03/06 08:22:18;;;;;;;8.77;6.45;;;8.20;99.90;;;;;;5050706;28;20032;-48
2024/03/06 08:24:44;;;;;;;10.85;7.18;;;8.30;99.90;;;;;;5057650;28;20032;-51
2024/03/06 08:27:09;;;;;;;9.57;6.93;;;8.30;99.90;;;;;;5053175;28;20041;-53
2024/03/06 08:29:35;;;;;;;10.85;7.30;;;8.50;99.90;;;;;;5053083;28;20469;-52
2024/03/06 08:32:00;;;;;;;12.45;5.88;;;8.60;99.90;;;;;;5053749;28;20033;-53
2024/03/06 08:34:26;;;;;;;10.55;6.65;;;8.70;99.90;;;;;;5069059;28;20071;-50
2024/03/06 08:36:53;;;;;;;7.65;6.85;;;8.80;99.90;;;;;;5053574;28;20025;-49
2024/03/06 08:39:18;;;;;;;8.88;6.40;;;8.90;99.90;;;;;;5052165;28;20079;-50
2024/03/06 08:41:44;;;;;;;13.27;7.15;;;9.10;99.90;;;;;;5052150;28;20036;-52
2024/03/06 08:44:09;;;;;;;10.27;6.75;;;9.30;99.90;;;;;;5052408;28;20013;-47
2024/03/06 08:46:35;;;;;;;12.32;7.15;;;9.40;99.90;;;;;;5052542;28;20446;-49
2024/03/06 08:49:00;;;;;;;11.27;7.70;;;9.60;99.90;;;;;;5052142;28;20029;-53
2024/03/06 08:51:26;;;;;;;12.73;6.82;;;9.60;99.90;;;;;;5052377;28;20032;-53
2024/03/06 08:53:51;;;;;;;8.57;6.32;;;9.70;99.90;;;;;;5052286;28;20082;-51
2024/03/06 08:56:18;;;;;;;12.57;7.47;;;9.80;99.90;;;;;;5052434;28;20035;-49
2024/03/06 08:58:44;;;;;;;10.70;6.47;;;9.80;99.90;;;;;;5052577;28;20410;-49
2024/03/06 09:01:09;;;;;;;7.95;5.28;;;9.60;99.90;;;;;;5052036;28;20025;-47
2024/03/06 09:03:36;;;;;;;9.93;5.65;;;9.60;99.90;;;;;;5051086;28;20056;-47
2024/03/06 09:06:02;;;;;;;8.23;5.85;;;9.60;99.90;;;;;;5051966;28;20025;-49
2024/03/06 09:08:28;;;;;;;8.00;5.07;;;9.80;99.90;;;;;;5052332;28;20416;-52
2024/03/06 09:10:54;;;;;;;6.40;5.47;;;10.00;99.90;;;;;;5052574;28;20031;-47
2024/03/06 09:13:19;;;;;;;7.72;5.82;;;10.30;99.90;;;;;;5052090;28;20101;-48
2024/03/06 09:15:45;;;;;;;9.55;5.93;;;10.60;99.90;;;;;;5051671;28;20036;-50
2024/03/06 09:18:10;;;;;;;9.30;6.68;;;10.70;99.90;;;;;;5051750;28;20064;-46
2024/03/06 09:20:36;;;;;;;9.73;7.18;;;10.80;99.90;;;;;;5051836;28;20404;-47
2024/03/06 09:23:01;;;;;;;11.48;8.30;;;11.00;99.90;;;;;;5051470;28;20083;-49
2024/03/06 09:25:27;;;;;;;11.00;7.00;;;11.10;99.90;;;;;;5052075;28;20504;-46
2024/03/06 09:27:53;;;;;;;11.02;7.78;;;11.30;99.90;;;;;;5051433;28;20099;-49
2024/03/06 09:30:19;;;;;;;10.13;7.35;;;11.40;99.90;;;;;;5052157;28;20435;-48
2024/03/06 09:32:44;;;;;;;12.00;7.88;;;11.60;99.90;;;;;;5053675;28;20111;-48
2024/03/06 09:35:10;;;;;;;9.95;7.63;;;11.50;99.90;;;;;;5053613;28;20408;-45
2024/03/06 09:37:35;;;;;;;14.50;7.80;;;11.80;99.90;;;;;;5050622;28;20020;-44
2024/03/06 09:40:01;;;;;;;9.40;7.05;;;11.90;99.90;;;;;;5051346;28;20503;-47
2024/03/06 09:42:26;;;;;;;12.27;8.82;;;12.20;99.90;;;;;;5046618;28;20477;-48
2024/03/06 09:44:52;;;;;;;13.10;8.10;;;12.10;99.90;;;;;;5049896;28;20031;-46
2024/03/06 09:47:25;;;;;;;10.88;8.27;;;12.70;99.90;;;;;;5051166;28;20111;-45
2024/03/06 09:49:53;;;;;;;11.00;8.52;;;13.10;99.90;;;;;;5050876;28;20396;-46
2024/03/06 09:52:19;;;;;;;12.00;7.85;;;13.40;99.90;;;;;;5051001;28;20033;-48
2024/03/06 09:54:44;;;;;;;13.55;9.52;;;13.60;99.90;;;;;;5051204;28;20106;-50
2024/03/06 09:57:11;;;;;;;14.05;8.63;;;13.60;99.90;;;;;;5055540;28;20039;-47
2024/03/06 09:59:43;;;;;;;18.98;12.40;;;13.10;99.90;;;;;;5057514;28;20110;-47
2024/03/06 10:02:18;;;;;;;16.02;11.25;;;13.30;99.90;;;;;;5039591;28;20083;-45
2024/03/06 10:04:43;;;;;;;15.55;10.90;;;13.60;99.90;;;;;;5049985;28;20025;-45
2024/03/06 10:07:10;;;;;;;17.65;12.32;;;14.00;99.90;;;;;;5051697;28;20035;-45
2024/03/06 10:09:36;;;;;;;22.65;14.68;;;14.10;99.90;;;;;;5050127;28;20021;-48
2024/03/06 10:12:01;;;;;;;21.48;14.20;;;13.50;99.90;;;;;;5051127;28;20396;-45
2024/03/06 10:14:28;;;;;;;19.38;13.90;;;13.10;99.90;;;;;;5051321;28;20056;-45
2024/03/06 10:16:56;;;;;;;17.52;13.23;;;13.00;99.90;;;;;;5050893;28;20025;-48
2024/03/06 10:19:22;;;;;;;20.95;14.70;;;13.40;99.90;;;;;;5056730;28;20029;-45
2024/03/06 10:21:49;;;;;;;17.40;12.88;;;13.60;99.90;;;;;;5050422;28;20086;-50
2024/03/06 10:24:25;;;;;;;20.77;15.50;;;13.70;99.90;;;;;;5052384;28;20036;-49
2024/03/06 10:26:54;;;;;;;23.42;15.00;;;13.10;99.90;;;;;;5052449;28;20021;-48
2024/03/06 10:29:20;;;;;;;20.20;15.23;;;13.10;99.90;;;;;;5049423;28;20021;-47
2024/03/06 10:31:54;;;;;;;27.85;17.42;;;12.70;99.90;;;;;;5049605;28;20036;-47
2024/03/06 10:34:20;;;;;;;23.40;17.23;;;12.70;99.90;;;;;;5050961;28;20032;-48
2024/03/06 10:36:47;;;;;;;23.33;16.85;;;12.40;99.90;;;;;;5050523;28;20492;-51
2024/03/06 10:39:15;;;;;;;25.65;16.30;;;12.10;99.90;;;;;;5050822;28;20170;-47
2024/03/06 10:41:42;;;;;;;25.50;16.98;;;11.80;99.90;;;;;;5054696;28;20124;-52
2024/03/06 10:44:13;;;;;;;27.67;18.20;;;11.60;99.90;;;;;;5054664;28;20029;-47
2024/03/06 10:46:43;;;;;;;32.70;17.50;;;11.70;99.90;;;;;;5049947;28;20017;-50
2024/03/06 10:49:11;;;;;;;26.77;17.83;;;11.90;99.90;;;;;;5053194;28;20470;-48
2024/03/06 10:51:42;;;;;;;22.90;16.80;;;12.00;99.90;;;;;;5054939;28;20029;-47
2024/03/06 10:54:09;;;;;;;24.35;17.15;;;12.10;99.90;;;;;;5054558;28;20111;-48
2024/03/06 10:56:35;;;;;;;24.10;16.60;;;12.30;99.90;;;;;;5053676;28;20059;-46
2024/03/06 10:59:02;;;;;;;23.00;15.73;;;12.40;99.90;;;;;;5060740;28;20492;-49
2024/03/06 11:01:32;;;;;;;24.38;16.42;;;12.40;99.90;;;;;;5061173;28;20058;-55
2024/03/06 11:04:00;;;;;;;28.13;17.55;;;12.20;99.90;;;;;;5055734;28;20666;-48
2024/03/06 11:06:26;;;;;;;25.58;17.08;;;12.00;99.90;;;;;;5056759;28;20454;-52
2024/03/06 11:08:52;;;;;;;70.47;40.67;;;11.90;99.90;;;;;;5053599;28;20100;-55
2024/03/06 11:11:24;;;;;;;26.15;18.02;;;11.90;99.90;;;;;;5055435;28;20052;-49
2024/03/06 11:13:54;;;;;;;26.25;15.88;;;11.80;99.90;;;;;;5055684;28;20025;-51
2024/03/06 11:16:33;;;;;;;23.38;16.73;;;11.80;99.90;;;;;;5072204;28;20021;-50
2024/03/06 11:19:07;;;;;;;24.85;16.35;;;11.90;99.90;;;;;;5051661;28;20032;-49
2024/03/06 11:21:45;;;;;;;27.45;15.88;;;12.10;99.90;;;;;;5052085;28;20040;-50
2024/03/06 11:24:22;;;;;;;24.58;17.30;;;12.00;99.90;;;;;;5044610;28;20029;-54
2024/03/06 11:27:00;;;;;;;23.67;15.60;;;12.00;99.90;;;;;;5047018;28;20039;-49
2024/03/06 11:29:29;;;;;;;27.33;16.02;;;11.90;99.90;;;;;;5052648;28;20033;-51
2024/03/06 11:32:03;;;;;;;22.83;14.73;;;11.80;99.90;;;;;;5052634;28;20314;-44
2024/03/06 11:34:32;;;;;;;20.73;13.93;;;11.70;99.90;;;;;;5052966;28;20116;-50
2024/03/06 11:36:58;;;;;;;20.58;13.43;;;11.50;99.90;;;;;;5053598;28;20068;-49
2024/03/06 11:39:27;;;;;;;20.30;14.02;;;11.30;99.90;;;;;;5052607;28;20029;-47
2024/03/06 11:41:53;;;;;;;23.60;14.05;;;11.00;99.90;;;;;;5052832;28;20036;-50
2024/03/06 11:44:23;;;;;;;20.33;14.40;;;11.00;99.90;;;;;;5051940;28;20029;-47
2024/03/06 11:46:49;;;;;;;22.30;14.27;;;11.00;99.90;;;;;;5052930;28;20510;-48
2024/03/06 11:49:24;;;;;;;22.08;13.70;;;11.00;99.90;;;;;;5053309;28;20098;-46
2024/03/06 11:51:54;;;;;;;21.80;15.15;;;11.20;99.90;;;;;;5051397;28;20480;-52
2024/03/06 11:54:24;;;;;;;20.60;14.45;;;11.30;99.90;;;;;;5050609;28;20355;-48
2024/03/06 11:56:51;;;;;;;20.42;13.55;;;11.30;99.90;;;;;;5052737;28;20071;-47
2024/03/06 11:59:17;;;;;;;24.95;13.77;;;11.20;99.90;;;;;;5052597;28;20086;-48
2024/03/06 12:01:43;;;;;;;22.73;13.20;;;11.20;99.90;;;;;;5051601;28;20033;-45
2024/03/06 12:04:08;;;;;;;16.25;11.00;;;11.10;99.90;;;;;;5053641;28;20384;-48
2024/03/06 12:06:34;;;;;;;17.52;12.02;;;11.20;99.90;;;;;;5054676;28;20028;-49
2024/03/06 12:09:00;;;;;;;20.60;12.05;;;11.20;99.90;;;;;;5053109;28;20087;-48
2024/03/06 12:11:28;;;;;;;15.93;11.45;;;11.20;99.90;;;;;;5053148;28;20125;-48
2024/03/06 12:13:53;;;;;;;20.67;13.38;;;11.20;99.90;;;;;;5054134;28;20432;-47
2024/03/06 12:16:19;;;;;;;17.70;11.00;;;11.20;99.90;;;;;;5054598;28;20036;-48
2024/03/06 12:18:46;;;;;;;16.00;10.45;;;11.40;99.90;;;;;;5053657;28;20024;-51
2024/03/06 12:21:11;;;;;;;18.48;11.10;;;11.50;99.90;;;;;;5051670;28;20108;-53
2024/03/06 12:23:37;;;;;;;16.80;11.00;;;11.50;99.90;;;;;;5052870;28;20112;-54
2024/03/06 12:26:10;;;;;;;17.98;11.18;;;11.50;99.90;;;;;;5052906;28;20021;-48
2024/03/06 12:28:39;;;;;;;17.48;11.05;;;11.50;99.90;;;;;;5052697;28;20100;-47
2024/03/06 12:31:07;;;;;;;15.27;11.13;;;11.50;99.90;;;;;;5052677;28;20024;-52
2024/03/06 12:33:36;;;;;;;15.77;10.32;;;11.50;99.90;;;;;;5052771;28;20086;-50
2024/03/06 12:36:06;;;;;;;15.38;10.75;;;11.40;99.90;;;;;;5052567;28;20025;-47
2024/03/06 12:38:33;;;;;;;17.45;11.40;;;11.50;99.90;;;;;;5052967;28;20481;-54